createdAt,value
2023-05-10T00:04:04.423Z,3.30
2023-05-10T00:09:07.600Z,3.24
2023-05-10T00:14:10.500Z,3.15
2023-05-10T00:19:13.361Z,3.04
2023-05-10T00:24:16.202Z,2.93
2023-05-10T00:29:19.051Z,2.87
2023-05-10T00:34:21.954Z,2.87
2023-05-10T00:39:24.816Z,2.86
2023-05-10T00:44:27.672Z,2.82
2023-05-10T00:49:31.122Z,2.76
2023-05-10T00:54:33.881Z,2.67
2023-05-10T00:59:36.803Z,2.56
2023-05-10T01:04:40.596Z,2.45
2023-05-10T01:09:43.491Z,2.36
2023-05-10T01:14:46.983Z,2.35
2023-05-10T01:19:51.120Z,2.37
2023-05-10T01:25:00.196Z,2.38
2023-05-10T01:30:15.912Z,2.42
2023-05-10T01:35:39.480Z,2.45
2023-05-10T01:41:00.909Z,2.48
2023-05-10T01:46:12.125Z,2.61
2023-05-10T01:51:24.051Z,2.79
2023-05-10T01:56:29.343Z,2.95
2023-05-10T02:01:34.719Z,3.05
2023-05-10T02:06:39.640Z,3.07
2023-05-10T02:11:45.182Z,3.04
2023-05-10T02:16:50.051Z,2.98
2023-05-10T02:21:53.628Z,2.99
2023-05-10T02:26:58.374Z,2.98
2023-05-10T02:32:02.697Z,2.92
2023-05-10T02:37:07.180Z,2.82
2023-05-10T02:42:15.130Z,2.71
2023-05-10T02:47:19.800Z,2.63
2023-05-10T02:52:27.448Z,2.57
2023-05-10T02:57:34.926Z,2.56
2023-05-10T03:02:38.027Z,2.58
2023-05-10T03:07:41.105Z,2.58
2023-05-10T03:13:12.270Z,2.62
2023-05-10T03:18:22.500Z,2.68
2023-05-10T03:23:31.314Z,2.73
2023-05-10T03:28:35.910Z,2.74
2023-05-10T03:33:50.456Z,2.75
2023-05-10T03:38:53.376Z,2.80
2023-05-10T03:43:56.230Z,2.88
2023-05-10T03:48:59.101Z,2.99
2023-05-10T03:54:02.142Z,3.15
2023-05-10T03:59:08.502Z,3.39
2023-05-10T04:04:11.565Z,3.63
2023-05-10T04:09:15.162Z,3.89
2023-05-10T04:14:18.056Z,4.10
2023-05-10T04:19:21.429Z,4.29
2023-05-10T04:24:24.613Z,4.46
2023-05-10T04:29:29.730Z,4.66
2023-05-10T04:34:35.973Z,4.86
2023-05-10T04:39:42.188Z,5.09
2023-05-10T04:44:45.867Z,5.34
2023-05-10T04:49:48.713Z,5.59
2023-05-10T04:54:51.959Z,5.86
2023-05-10T04:59:54.666Z,6.15
2023-05-10T05:04:59.014Z,6.44
2023-05-10T05:10:01.886Z,6.74
2023-05-10T05:15:05.548Z,7.05
2023-05-10T05:20:10.520Z,7.36
2023-05-10T05:25:13.860Z,7.68
2023-05-10T05:30:16.978Z,8.00
2023-05-10T05:35:20.042Z,8.36
2023-05-10T05:40:23.441Z,8.73
2023-05-10T05:45:26.378Z,9.08
2023-05-10T05:50:29.233Z,9.42
2023-05-10T05:55:32.696Z,9.74
2023-05-10T06:00:35.886Z,10.09
2023-05-10T06:05:39.292Z,10.42
2023-05-10T06:10:42.423Z,10.72
2023-05-10T06:15:45.400Z,11.02
2023-05-10T06:20:48.263Z,11.32
2023-05-10T06:25:51.194Z,11.58
2023-05-10T06:30:54.189Z,11.84
2023-05-10T06:35:57.136Z,12.11
2023-05-10T06:41:01.258Z,12.37
2023-05-10T06:46:04.569Z,12.66
2023-05-10T06:51:07.648Z,12.91
2023-05-10T06:56:10.495Z,13.18
2023-05-10T07:01:14.021Z,13.44
2023-05-10T07:06:29.430Z,13.72
2023-05-10T07:11:36.570Z,13.98
2023-05-10T07:16:40.154Z,14.24
2023-05-10T07:21:45.358Z,14.40
2023-05-10T07:26:49.399Z,14.60
2023-05-10T07:31:52.487Z,14.75
2023-05-10T07:36:55.672Z,14.95
2023-05-10T07:41:59.929Z,15.12
2023-05-10T07:47:03.842Z,15.26
2023-05-10T07:52:06.758Z,15.40
2023-05-10T07:57:09.536Z,15.54
2023-05-10T08:02:12.495Z,15.69
2023-05-10T08:07:15.366Z,15.81
2023-05-10T08:12:18.244Z,15.92
2023-05-10T08:17:23.472Z,16.07
2023-05-10T08:22:28.494Z,16.24
2023-05-10T08:27:31.348Z,16.25
2023-05-10T08:32:34.310Z,16.29
2023-05-10T08:37:37.253Z,16.33
2023-05-10T08:42:44.067Z,16.48
2023-05-10T08:47:48.134Z,16.63
2023-05-10T08:52:55.142Z,16.69
2023-05-10T08:57:58.207Z,16.80
2023-05-10T09:03:02.133Z,16.88
2023-05-10T09:08:06.983Z,16.95
2023-05-10T09:13:11.555Z,17.06
2023-05-10T09:18:14.673Z,17.14
2023-05-10T09:23:17.614Z,17.25
2023-05-10T09:28:20.531Z,17.35
2023-05-10T09:33:23.421Z,17.42
2023-05-10T09:38:27.795Z,17.57
2023-05-10T09:43:39.012Z,17.74
2023-05-10T09:48:47.302Z,17.87
2023-05-10T09:54:10.620Z,17.96
2023-05-10T09:59:14.005Z,18.03
2023-05-10T10:04:17.262Z,18.10
2023-05-10T10:09:20.292Z,18.15
2023-05-10T10:14:24.968Z,18.18
2023-05-10T10:19:27.910Z,18.23
2023-05-10T10:24:30.886Z,18.32
2023-05-10T10:29:42.310Z,18.45
2023-05-10T10:34:45.248Z,18.55
2023-05-10T10:39:50.689Z,18.65
2023-05-10T10:45:13.282Z,18.82
2023-05-10T10:50:17.507Z,18.97
2023-05-10T10:55:26.059Z,19.09
2023-05-10T11:00:34.084Z,19.17
2023-05-10T11:05:41.594Z,19.24
2023-05-10T11:11:11.223Z,19.35
2023-05-10T11:16:16.636Z,19.45
2023-05-10T11:21:19.951Z,19.53
2023-05-10T11:26:26.274Z,19.63
2023-05-10T11:31:29.892Z,19.68
2023-05-10T11:36:37.407Z,19.71
2023-05-10T11:41:42.897Z,19.86
2023-05-10T11:46:45.983Z,20.05
2023-05-10T11:51:55.345Z,20.25
2023-05-10T11:56:58.177Z,20.35
2023-05-10T12:02:01.298Z,20.46
2023-05-10T12:07:04.468Z,20.53
2023-05-10T12:12:07.772Z,20.59
2023-05-10T12:17:14.506Z,20.71
2023-05-10T12:22:23.323Z,20.81
2023-05-10T12:27:41.613Z,20.86
2023-05-10T12:32:45.370Z,20.98
2023-05-10T12:37:49.007Z,21.14
2023-05-10T12:42:51.923Z,21.20
2023-05-10T12:47:54.908Z,21.20
2023-05-10T12:52:58.110Z,21.24
2023-05-10T12:58:01.230Z,21.30
2023-05-10T13:03:06.216Z,21.47
2023-05-10T13:08:09.025Z,21.62
2023-05-10T13:13:11.882Z,21.71
2023-05-10T13:18:14.690Z,21.69
2023-05-10T13:23:17.544Z,21.74
2023-05-10T13:28:20.516Z,21.98
2023-05-10T13:33:23.279Z,22.22
2023-05-10T13:38:26.829Z,22.37
2023-05-10T13:43:30.494Z,22.34
2023-05-10T13:48:33.272Z,22.56
2023-05-10T13:53:36.038Z,23.33
2023-05-10T13:58:38.839Z,24.02
2023-05-10T14:03:41.725Z,24.65
2023-05-10T14:08:44.774Z,25.26
2023-05-10T14:13:47.515Z,25.85
2023-05-10T14:18:50.387Z,26.32
2023-05-10T14:23:53.317Z,26.65
2023-05-10T14:28:56.201Z,27.07
2023-05-10T14:34:00.272Z,27.42
2023-05-10T14:39:03.942Z,27.73
2023-05-10T14:44:06.739Z,28.09
2023-05-10T14:49:09.632Z,28.48
2023-05-10T14:54:12.467Z,28.90
2023-05-10T14:59:15.328Z,29.40
2023-05-10T15:04:18.582Z,29.57
2023-05-10T15:09:21.860Z,29.72
2023-05-10T15:14:24.715Z,29.67
2023-05-10T15:19:27.490Z,29.77
2023-05-10T15:24:30.917Z,30.22
2023-05-10T15:29:35.345Z,30.70
2023-05-10T15:34:38.179Z,31.07
2023-05-10T15:39:41.009Z,31.53
2023-05-10T15:44:45.553Z,31.97
2023-05-10T15:49:48.560Z,31.98
2023-05-10T15:54:51.942Z,32.10
2023-05-10T15:59:54.818Z,32.09
2023-05-10T16:04:57.698Z,32.58
2023-05-10T16:10:04.145Z,33.16
2023-05-10T16:15:07.832Z,33.39
2023-05-10T16:20:11.220Z,33.61
2023-05-10T16:25:14.303Z,33.57
2023-05-10T16:30:17.276Z,33.56
2023-05-10T16:35:20.220Z,33.79
2023-05-10T16:40:24.099Z,33.97
2023-05-10T16:45:27.051Z,33.66
2023-05-10T16:50:29.902Z,33.71
2023-05-10T16:55:32.734Z,33.55
2023-05-10T17:00:36.395Z,33.38
2023-05-10T17:05:39.209Z,33.22
2023-05-10T17:10:42.085Z,33.27
2023-05-10T17:15:47.448Z,32.91
2023-05-10T17:20:50.864Z,32.36
2023-05-10T17:25:53.652Z,31.39
2023-05-10T17:31:00.217Z,30.02
2023-05-10T17:36:03.860Z,28.97
2023-05-10T17:41:06.731Z,26.65
2023-05-10T17:46:09.687Z,24.51
2023-05-10T17:51:12.796Z,22.69
2023-05-10T17:56:15.629Z,21.09
2023-05-10T18:01:18.590Z,19.77
2023-05-10T18:06:21.539Z,19.05
2023-05-10T18:11:24.404Z,18.27
2023-05-10T18:16:27.244Z,17.36
2023-05-10T18:21:30.046Z,16.54
2023-05-10T18:26:32.870Z,15.81
2023-05-10T18:31:35.804Z,15.21
2023-05-10T18:36:38.773Z,14.64
2023-05-10T18:41:41.542Z,14.11
2023-05-10T18:46:44.633Z,13.62
2023-05-10T18:51:47.506Z,13.17
2023-05-10T18:56:50.324Z,12.77
2023-05-10T19:01:54.893Z,12.40
2023-05-10T19:07:01.044Z,12.07
2023-05-10T19:12:03.992Z,11.76
2023-05-10T19:17:09.802Z,11.47
2023-05-10T19:22:13.451Z,11.18
2023-05-10T19:27:16.879Z,10.91
2023-05-10T19:32:19.818Z,10.67
2023-05-10T19:37:22.770Z,10.46
2023-05-10T19:42:25.642Z,10.26
2023-05-10T19:47:28.623Z,10.06
2023-05-10T19:52:31.467Z,9.86
2023-05-10T19:57:34.377Z,9.67
2023-05-10T20:02:37.244Z,9.48
2023-05-10T20:07:40.136Z,9.29
2023-05-10T20:12:52.239Z,9.12
2023-05-10T20:17:55.644Z,8.96
2023-05-10T20:22:58.547Z,8.79
2023-05-10T20:28:01.423Z,8.65
2023-05-10T20:33:04.490Z,8.51
2023-05-10T20:38:07.489Z,8.36
2023-05-10T20:43:10.763Z,8.18
2023-05-10T20:48:13.714Z,8.04
2023-05-10T20:53:18.606Z,7.90
2023-05-10T20:58:21.567Z,7.77
2023-05-10T21:03:24.414Z,7.65
2023-05-10T21:08:27.271Z,7.50
2023-05-10T21:13:30.345Z,7.33
2023-05-10T21:18:33.493Z,7.15
2023-05-10T21:23:36.350Z,6.97
2023-05-10T21:28:40.208Z,6.82
2023-05-10T21:33:43.568Z,6.68
2023-05-10T21:38:46.771Z,6.53
2023-05-10T21:43:49.612Z,6.40
2023-05-10T21:48:52.392Z,6.25
2023-05-10T21:53:55.263Z,6.10
2023-05-10T21:58:58.083Z,5.96
2023-05-10T22:04:01.279Z,5.84
2023-05-10T22:09:05.197Z,5.73
2023-05-10T22:14:08.088Z,5.64
2023-05-10T22:19:10.893Z,5.54
2023-05-10T22:24:13.827Z,5.44
2023-05-10T22:29:17.144Z,5.37
2023-05-10T22:34:19.855Z,5.27
2023-05-10T22:39:23.656Z,5.17
2023-05-10T22:44:26.485Z,5.07
2023-05-10T22:49:29.383Z,4.98
2023-05-10T22:54:33.750Z,4.89
2023-05-10T22:59:38.620Z,4.80
2023-05-10T23:04:41.506Z,4.73
2023-05-10T23:09:44.381Z,4.67
2023-05-10T23:14:47.765Z,4.61
2023-05-10T23:19:50.593Z,4.65
2023-05-10T23:24:53.388Z,4.77
2023-05-10T23:29:56.831Z,4.90
2023-05-10T23:34:59.595Z,5.01
2023-05-10T23:40:03.241Z,5.06
2023-05-10T23:45:06.799Z,5.06
2023-05-10T23:50:10.251Z,4.99
2023-05-10T23:55:13.177Z,4.91
